Time;durP1;ratioP1;P1;durP2;ratioP2;P2;SDS_P1;SDS_P2;PMS_P1;PMS_P2;Temp;Humidity;BMP_temperature;BMP_pressure;BME280_temperature;BME280_humidity;BME280_pressure;Samples;Min_cycle;Max_cycle;Signal;HPM_P1;HPM_P2
2022/09/23 00:01:38;;;;;;;;;;;;;;;22.39;37.13;101037.09;104482;1311;73746;-86
2022/09/23 00:04:10;;;;;;;;;;;;;;;22.39;37.06;101033.33;104470;1311;74684;-84
2022/09/23 00:06:36;;;;;;;;;;;;;;;22.38;37.21;101032.30;104388;1311;61623;-83
2022/09/23 00:09:07;;;;;;;;;;;;;;;22.39;37.16;101029.59;104503;1311;61310;-85
2022/09/23 00:11:33;;;;;;;;;;;;;;;22.39;37.12;101028.14;104386;1311;72889;-87
2022/09/23 00:13:59;;;;;;;;;;;;;;;22.38;37.17;101025.83;104486;1311;61314;-86
2022/09/23 00:16:28;;;;;;;;;;;;;;;22.38;37.27;101025.67;104460;1311;61310;-84
2022/09/23 00:18:57;;;;;;;;;;;;;;;22.38;37.18;101028.00;104428;1311;61650;-85
2022/09/23 00:21:26;;;;;;;;;;;;;;;22.38;37.04;101029.61;104474;1311;61404;-83
2022/09/23 00:24:00;;;;;;;;;;;;;;;22.38;37.25;101026.91;104450;1311;74543;-85
2022/09/23 00:26:26;;;;;;;;;;;;;;;22.38;37.19;101026.92;104486;1311;61228;-84
2022/09/23 00:28:52;;;;;;;;;;;;;;;22.38;37.33;101026.92;104362;1311;61307;-85
2022/09/23 00:31:19;;;;;;;;;;;;;;;22.38;37.17;101027.84;104490;1310;61318;-83
2022/09/23 00:33:44;;;;;;;;;;;;;;;22.38;37.26;101027.81;104520;1310;61199;-84
2022/09/23 00:36:16;;;;;;;;;;;;;;;22.38;37.32;101024.45;104500;1312;61205;-84
2022/09/23 00:38:42;;;;;;;;;;;;;;;22.38;37.26;101022.81;104491;1311;61157;-82
2022/09/23 00:41:34;;;;;;;;;;;;;;;22.38;37.20;101024.77;104457;1311;61312;-84
2022/09/23 00:44:00;;;;;;;;;;;;;;;22.37;37.09;101020.52;103794;1316;75902;-86
2022/09/23 00:46:33;;;;;;;;;;;;;;;22.38;37.30;101021.02;103810;1317;62004;-86
2022/09/23 00:49:00;;;;;;;;;;;;;;;22.37;37.35;101018.55;103827;1317;61562;-88
2022/09/23 00:51:32;;;;;;;;;;;;;;;22.38;37.29;101018.52;103696;1317;73892;-84
2022/09/23 00:54:00;;;;;;;;;;;;;;;22.38;37.30;101022.13;103730;1317;75402;-84
2022/09/23 00:56:25;;;;;;;;;;;;;;;22.37;37.26;101022.48;103827;1317;62298;-85
2022/09/23 00:58:51;;;;;;;;;;;;;;;22.37;37.38;101021.62;103598;1317;61302;-84
2022/09/23 01:01:16;;;;;;;;;;;;;;;22.37;37.22;101023.05;103589;1317;61323;-86
2022/09/23 01:03:43;;;;;;;;;;;;;;;22.37;37.27;101027.02;103775;1317;61347;-87
2022/09/23 01:06:08;;;;;;;;;;;;;;;22.37;37.32;101030.08;103692;1317;76125;-85
2022/09/23 01:08:37;;;;;;;;;;;;;;;22.37;37.34;101030.40;103728;1317;61460;-84
2022/09/23 01:11:12;;;;;;;;;;;;;;;22.36;37.23;101034.02;103839;1316;61548;-87
2022/09/23 01:13:57;;;;;;;;;;;;;;;22.36;37.40;101036.89;103714;1317;72681;-85
2022/09/23 01:16:40;;;;;;;;;;;;;;;22.36;37.31;101034.04;103807;1316;74651;-86
2022/09/23 01:19:09;;;;;;;;;;;;;;;22.36;37.31;101038.34;103795;1317;61165;-84
2022/09/23 01:21:47;;;;;;;;;;;;;;;22.36;37.43;101038.89;104219;1310;61158;-83
2022/09/23 01:24:18;;;;;;;;;;;;;;;22.36;37.34;101043.20;104478;1311;72916;-86
2022/09/23 01:26:53;;;;;;;;;;;;;;;22.36;37.28;101041.80;104501;1311;75815;-85
2022/09/23 01:29:22;;;;;;;;;;;;;;;22.36;37.35;101045.22;104525;1311;61186;-84
2022/09/23 01:31:48;;;;;;;;;;;;;;;22.36;37.41;101043.21;104562;1310;61105;-83
2022/09/23 01:34:34;;;;;;;;;;;;;;;22.36;37.33;101045.19;104707;1311;61308;-84
2022/09/23 01:37:20;;;;;;;;;;;;;;;22.36;37.34;101041.96;104381;1311;74689;-84
2022/09/23 01:39:56;;;;;;;;;;;;;;;22.36;37.46;101041.60;104015;1316;61198;-84
2022/09/23 01:42:22;;;;;;;;;;;;;;;22.36;37.50;101041.77;104088;1317;61198;-85
2022/09/23 01:44:50;;;;;;;;;;;;;;;22.36;37.35;101040.16;104104;1316;61799;-86
2022/09/23 01:47:23;;;;;;;;;;;;;;;22.36;37.44;101041.23;104101;1317;74858;-86
2022/09/23 01:50:00;;;;;;;;;;;;;;;22.36;37.42;101041.42;103983;1316;61338;-84
2022/09/23 01:52:37;;;;;;;;;;;;;;;22.36;37.35;101036.77;104016;1317;61305;-85
2022/09/23 01:55:16;;;;;;;;;;;;;;;22.36;37.39;101040.20;104099;1317;72754;-86
2022/09/23 01:57:48;;;;;;;;;;;;;;;22.36;37.32;101044.30;103816;1318;75364;-85
2022/09/23 02:00:15;;;;;;;;;;;;;;;22.36;37.33;101045.59;104114;1317;61154;-84
2022/09/23 02:02:48;;;;;;;;;;;;;;;22.35;37.40;101046.84;103988;1317;61997;-84
2022/09/23 02:05:17;;;;;;;;;;;;;;;22.35;37.36;101052.42;104094;1317;72910;-84
2022/09/23 02:07:44;;;;;;;;;;;;;;;22.35;37.41;101053.66;103933;1317;74780;-85
2022/09/23 02:10:16;;;;;;;;;;;;;;;22.35;37.39;101053.68;104064;1317;61182;-86
2022/09/23 02:12:44;;;;;;;;;;;;;;;22.34;37.38;101054.80;103882;1317;61458;-84
2022/09/23 02:15:19;;;;;;;;;;;;;;;22.34;37.45;101055.67;103972;1317;74029;-85
2022/09/23 02:17:47;;;;;;;;;;;;;;;22.34;37.33;101058.91;104350;1311;74673;-83
2022/09/23 02:20:19;;;;;;;;;;;;;;;22.34;37.52;101057.49;104519;1311;61322;-85
2022/09/23 02:22:54;;;;;;;;;;;;;;;22.34;37.45;101060.56;104543;1309;61562;-86
2022/09/23 02:25:25;;;;;;;;;;;;;;;22.34;37.44;101066.45;104538;1309;73824;-83
2022/09/23 02:28:08;;;;;;;;;;;;;;;22.34;37.27;101071.28;104518;1309;74892;-81
2022/09/23 02:30:37;;;;;;;;;;;;;;;22.34;37.41;101077.20;104643;1309;61170;-84
2022/09/23 02:33:10;;;;;;;;;;;;;;;22.34;37.38;101080.27;104513;1309;61140;-87
2022/09/23 02:35:40;;;;;;;;;;;;;;;22.34;37.38;101084.41;104642;1307;72911;-84
2022/09/23 02:38:14;;;;;;;;;;;;;;;22.34;37.42;101086.56;104462;1309;74757;-85
2022/09/23 02:41:00;;;;;;;;;;;;;;;22.33;37.56;101085.88;104534;1308;61282;-85
2022/09/23 02:43:52;;;;;;;;;;;;;;;22.33;37.38;101084.98;104613;1308;61269;-86
2022/09/23 02:46:21;;;;;;;;;;;;;;;22.33;37.52;101085.34;104359;1309;72804;-85
2022/09/23 02:48:52;;;;;;;;;;;;;;;22.34;37.52;101090.52;104494;1309;74566;-90
2022/09/23 02:51:18;;;;;;;;;;;;;;;22.34;37.44;101089.42;104466;1308;61210;-85
2022/09/23 02:53:44;;;;;;;;;;;;;;;22.33;37.47;101090.89;104483;1309;61468;-84
2022/09/23 02:56:14;;;;;;;;;;;;;;;22.33;37.65;101088.02;104425;1308;61286;-86
2022/09/23 02:58:40;;;;;;;;;;;;;;;22.33;37.50;101090.01;104611;1307;76074;-85
2022/09/23 03:01:17;;;;;;;;;;;;;;;22.33;37.47;101088.77;104512;1309;61387;-87
2022/09/23 03:03:45;;;;;;;;;;;;;;;22.33;37.52;101090.02;104545;1308;62395;-84
2022/09/23 03:06:27;;;;;;;;;;;;;;;22.33;37.48;101092.73;104655;1309;72645;-85
2022/09/23 03:09:07;;;;;;;;;;;;;;;22.33;37.55;101091.82;104507;1309;74648;-85
2022/09/23 03:11:34;;;;;;;;;;;;;;;22.32;37.59;101091.31;104646;1309;61252;-84
2022/09/23 03:14:25;;;;;;;;;;;;;;;22.33;37.55;101092.72;104508;1309;61231;-84
2022/09/23 03:16:52;;;;;;;;;;;;;;;22.33;37.51;101093.27;104625;1309;73218;-84
2022/09/23 03:19:41;;;;;;;;;;;;;;;22.32;37.47;101094.38;104626;1309;74960;-84
2022/09/23 03:22:33;;;;;;;;;;;;;;;22.32;37.52;101099.60;104391;1311;60239;-85
2022/09/23 03:25:06;;;;;;;;;;;;;;;22.32;37.46;101098.16;104312;1315;61385;-85
2022/09/23 03:27:57;;;;;;;;;;;;;;;22.32;37.40;101096.89;104246;1315;72778;-83
2022/09/23 03:30:23;;;;;;;;;;;;;;;22.32;37.60;101099.98;103375;1320;75369;-88
2022/09/23 03:32:52;;;;;;;;;;;;;;;22.32;37.48;101100.70;103284;1321;61402;-86
2022/09/23 03:35:17;;;;;;;;;;;;;;;22.32;37.48;101103.91;103283;1321;61294;-83
2022/09/23 03:37:44;;;;;;;;;;;;;;;22.32;37.58;101105.16;103378;1320;61383;-86
2022/09/23 03:40:14;;;;;;;;;;;;;;;22.32;37.63;101105.92;103395;1320;61428;-82
2022/09/23 03:42:40;;;;;;;;;;;;;;;22.32;37.56;101107.33;103364;1319;62941;-86
2022/09/23 03:45:08;;;;;;;;;;;;;;;22.32;37.45;101106.08;103267;1320;61325;-84
2022/09/23 03:47:34;;;;;;;;;;;;;;;22.31;37.49;101108.83;103291;1320;73925;-83
2022/09/23 03:50:00;;;;;;;;;;;;;;;22.31;37.61;101105.41;103272;1320;62154;-85
2022/09/23 03:52:28;;;;;;;;;;;;;;;22.30;37.73;101108.85;103298;1321;61231;-85
2022/09/23 03:54:57;;;;;;;;;;;;;;;22.31;37.57;101113.14;103286;1320;61310;-89
2022/09/23 03:57:26;;;;;;;;;;;;;;;22.30;37.54;101112.61;103381;1320;61185;-84
2022/09/23 03:59:52;;;;;;;;;;;;;;;22.30;37.54;101112.07;103360;1320;76264;-89
2022/09/23 04:02:18;;;;;;;;;;;;;;;22.31;37.62;101114.41;103619;1317;61331;-84
2022/09/23 04:04:43;;;;;;;;;;;;;;;22.31;37.57;101116.19;103985;1317;61175;-84
2022/09/23 04:07:09;;;;;;;;;;;;;;;22.30;37.71;101116.59;104064;1309;61433;-86
2022/09/23 04:09:35;;;;;;;;;;;;;;;22.28;37.71;101118.55;104409;1309;61744;-85
2022/09/23 04:12:03;;;;;;;;;;;;;;;22.24;37.52;101117.89;104352;1309;61310;-87
2022/09/23 04:14:29;;;;;;;;;;;;;;;22.21;37.66;101116.34;104420;1308;61882;-83
2022/09/23 04:16:55;;;;;;;;;;;;;;;22.17;37.45;101120.77;104481;1309;61323;-86
2022/09/23 04:19:20;;;;;;;;;;;;;;;22.13;37.55;101118.17;104452;1309;61295;-84
2022/09/23 04:21:46;;;;;;;;;;;;;;;22.06;37.47;101119.18;104434;1309;61416;-85
2022/09/23 04:24:14;;;;;;;;;;;;;;;22.00;37.36;101117.84;104432;1308;61351;-84
2022/09/23 04:26:40;;;;;;;;;;;;;;;21.97;37.49;101118.06;104458;1311;61272;-83
2022/09/23 04:29:06;;;;;;;;;;;;;;;21.96;37.43;101122.05;104484;1309;61744;-83
2022/09/23 04:31:32;;;;;;;;;;;;;;;21.95;37.27;101116.72;104353;1309;61269;-86
2022/09/23 04:33:57;;;;;;;;;;;;;;;21.93;37.31;101118.27;104340;1309;61333;-84
2022/09/23 04:36:23;;;;;;;;;;;;;;;21.91;37.37;101120.77;104313;1308;61399;-85
2022/09/23 04:38:48;;;;;;;;;;;;;;;21.88;37.38;101114.89;104391;1308;61432;-87
2022/09/23 04:41:14;;;;;;;;;;;;;;;21.85;37.15;101114.71;104314;1308;72790;-84
2022/09/23 04:43:41;;;;;;;;;;;;;;;21.79;37.08;101109.61;104210;1309;61320;-83
2022/09/23 04:46:08;;;;;;;;;;;;;;;21.69;37.13;101109.04;104256;1308;60034;-83
2022/09/23 04:48:35;;;;;;;;;;;;;;;21.61;36.98;101110.66;104487;1308;61425;-83
2022/09/23 04:51:02;;;;;;;;;;;;;;;21.56;37.19;101112.24;104470;1308;72101;-84
2022/09/23 04:53:28;;;;;;;;;;;;;;;21.53;37.08;101112.98;104285;1308;75985;-84
2022/09/23 04:56:00;;;;;;;;;;;;;;;21.45;37.14;101114.54;104288;1308;61404;-83
2022/09/23 04:58:26;;;;;;;;;;;;;;;21.36;37.13;101116.77;104249;1309;60480;-82
2022/09/23 05:00:51;;;;;;;;;;;;;;;21.27;37.23;101116.30;104192;1308;61297;-83
2022/09/23 05:03:18;;;;;;;;;;;;;;;21.22;37.34;101117.52;104262;1308;61417;-82
2022/09/23 05:05:44;;;;;;;;;;;;;;;21.24;37.37;101119.17;104761;1309;59331;-84
2022/09/23 05:08:10;;;;;;;;;;;;;;;21.28;37.46;101121.25;104554;1307;59662;-83
2022/09/23 05:10:35;;;;;;;;;;;;;;;21.32;37.24;101118.13;104561;1307;59485;-83
2022/09/23 05:13:01;;;;;;;;;;;;;;;21.38;37.52;101121.10;104451;1308;61325;-83
2022/09/23 05:15:26;;;;;;;;;;;;;;;21.44;37.32;101119.50;104242;1308;74794;-83
2022/09/23 05:17:52;;;;;;;;;;;;;;;21.48;37.32;101121.72;104485;1307;60165;-84
2022/09/23 05:20:18;;;;;;;;;;;;;;;21.52;37.23;101121.96;104361;1308;61256;-83
2022/09/23 05:22:44;;;;;;;;;;;;;;;21.55;37.00;101118.71;104343;1308;61405;-82
2022/09/23 05:25:10;;;;;;;;;;;;;;;21.58;37.12;101119.94;104187;1309;61279;-83
2022/09/23 05:27:35;;;;;;;;;;;;;;;21.62;37.06;101123.32;104465;1308;61315;-83
2022/09/23 05:30:01;;;;;;;;;;;;;;;21.64;37.09;101118.55;104261;1308;61403;-82
2022/09/23 05:32:26;;;;;;;;;;;;;;;21.65;36.99;101123.65;104423;1307;61574;-83
2022/09/23 05:34:53;;;;;;;;;;;;;;;21.65;37.10;101126.11;104240;1308;60427;-83
2022/09/23 05:37:21;;;;;;;;;;;;;;;21.66;37.17;101129.98;104261;1308;61394;-82
2022/09/23 05:39:46;;;;;;;;;;;;;;;21.67;36.84;101133.89;104301;1309;61311;-85
2022/09/23 05:42:12;;;;;;;;;;;;;;;21.68;36.89;101135.43;104316;1308;61284;-83
2022/09/23 05:44:38;;;;;;;;;;;;;;;21.69;37.13;101135.20;104317;1309;61429;-82
2022/09/23 05:47:04;;;;;;;;;;;;;;;21.69;36.80;101131.06;104351;1309;61356;-82
2022/09/23 05:49:29;;;;;;;;;;;;;;;21.69;36.91;101137.86;104171;1309;60748;-85
2022/09/23 05:51:55;;;;;;;;;;;;;;;21.69;36.92;101139.27;104300;1308;61495;-83
2022/09/23 05:54:20;;;;;;;;;;;;;;;21.58;36.77;101140.38;104459;1308;61314;-84
2022/09/23 05:56:46;;;;;;;;;;;;;;;21.37;36.71;101145.00;104332;1308;61424;-83
2022/09/23 05:59:14;;;;;;;;;;;;;;;21.14;36.94;101147.20;104263;1309;61269;-84
2022/09/23 06:01:40;;;;;;;;;;;;;;;21.03;36.86;101149.05;104217;1308;61426;-82
2022/09/23 06:04:06;;;;;;;;;;;;;;;21.03;37.14;101153.47;104324;1309;61251;-82
2022/09/23 06:06:32;;;;;;;;;;;;;;;21.08;37.23;101151.39;104308;1308;61157;-83
2022/09/23 06:08:58;;;;;;;;;;;;;;;21.15;37.23;101152.00;104701;1308;60007;-83
2022/09/23 06:11:24;;;;;;;;;;;;;;;21.22;37.33;101151.52;104334;1307;61332;-82
2022/09/23 06:13:53;;;;;;;;;;;;;;;21.30;37.40;101148.18;104380;1308;61357;-85
2022/09/23 06:16:19;;;;;;;;;;;;;;;21.36;37.20;101151.70;104325;1308;59472;-83
2022/09/23 06:18:45;;;;;;;;;;;;;;;21.42;37.16;101153.44;104437;1308;61416;-84
2022/09/23 06:21:14;;;;;;;;;;;;;;;21.47;37.13;101157.61;104208;1308;62641;-81
2022/09/23 06:23:39;;;;;;;;;;;;;;;21.51;37.25;101155.50;105382;1308;60945;-82
2022/09/23 06:26:06;;;;;;;;;;;;;;;21.56;37.23;101156.62;104798;1309;59514;-83
2022/09/23 06:28:32;;;;;;;;;;;;;;;21.61;37.23;101159.75;104294;1308;61283;-83
2022/09/23 06:30:58;;;;;;;;;;;;;;;21.65;37.21;101155.36;105315;1307;59750;-83
2022/09/23 06:33:24;;;;;;;;;;;;;;;21.69;37.10;101159.55;105129;1309;59576;-83
2022/09/23 06:35:53;;;;;;;;;;;;;;;21.72;37.34;101156.81;104421;1308;61433;-82
2022/09/23 06:38:19;;;;;;;;;;;;;;;21.76;37.19;101159.60;104235;1307;75568;-83
2022/09/23 06:40:47;;;;;;;;;;;;;;;21.79;37.08;101158.90;104399;1308;61383;-81
2022/09/23 06:43:13;;;;;;;;;;;;;;;21.82;37.19;101162.39;104290;1308;61598;-83
2022/09/23 06:45:38;;;;;;;;;;;;;;;21.84;37.13;101165.14;104409;1308;61304;-82
2022/09/23 06:48:07;;;;;;;;;;;;;;;21.86;37.06;101165.92;104261;1308;61414;-83
2022/09/23 06:50:33;;;;;;;;;;;;;;;21.88;37.32;101164.34;104329;1309;59986;-81
2022/09/23 06:52:58;;;;;;;;;;;;;;;21.89;37.27;101168.17;104355;1307;62699;-84
2022/09/23 06:55:26;;;;;;;;;;;;;;;21.82;37.34;101169.98;104405;1308;59933;-84
2022/09/23 06:57:53;;;;;;;;;;;;;;;21.71;37.19;101169.80;104426;1309;74633;-84
2022/09/23 07:00:18;;;;;;;;;;;;;;;21.61;37.39;101174.97;104379;1308;60037;-81
2022/09/23 07:02:44;;;;;;;;;;;;;;;21.54;37.39;101176.83;104327;1308;67462;-85
2022/09/23 07:05:10;;;;;;;;;;;;;;;21.49;37.39;101178.09;104274;1308;59477;-83
2022/09/23 07:07:38;;;;;;;;;;;;;;;21.35;37.31;101183.62;104498;1307;59432;-85
2022/09/23 07:10:04;;;;;;;;;;;;;;;21.21;37.45;101178.44;104283;1307;61259;-84
2022/09/23 07:12:30;;;;;;;;;;;;;;;21.10;37.35;101178.77;104445;1307;61281;-84
2022/09/23 07:14:56;;;;;;;;;;;;;;;21.07;37.50;101182.39;104443;1308;61251;-85
2022/09/23 07:17:23;;;;;;;;;;;;;;;21.11;37.45;101183.23;104445;1308;61384;-84
2022/09/23 07:19:48;;;;;;;;;;;;;;;21.19;37.51;101187.38;104486;1308;61259;-82
2022/09/23 07:22:14;;;;;;;;;;;;;;;21.27;37.41;101186.85;104352;1308;61397;-82
2022/09/23 07:24:39;;;;;;;;;;;;;;;21.36;37.45;101188.40;104446;1308;61301;-81
2022/09/23 07:27:05;;;;;;;;;;;;;;;21.43;37.48;101190.42;104337;1309;61349;-82
2022/09/23 07:29:30;;;;;;;;;;;;;;;21.50;37.43;101186.42;104325;1308;61252;-82
2022/09/23 07:31:56;;;;;;;;;;;;;;;21.56;37.53;101186.56;104225;1308;59932;-82
2022/09/23 07:34:21;;;;;;;;;;;;;;;21.62;37.49;101187.77;104373;1308;61251;-83
2022/09/23 07:36:48;;;;;;;;;;;;;;;21.66;37.37;101191.46;104411;1307;61412;-83
2022/09/23 07:39:13;;;;;;;;;;;;;;;21.70;37.54;101192.27;104294;1308;72657;-83
2022/09/23 07:41:40;;;;;;;;;;;;;;;21.73;37.55;101193.82;104268;1309;60170;-82
2022/09/23 07:44:05;;;;;;;;;;;;;;;21.78;37.48;101191.92;104326;1308;59684;-83
2022/09/23 07:46:32;;;;;;;;;;;;;;;21.80;37.46;101191.73;104423;1308;61304;-84
2022/09/23 07:48:57;;;;;;;;;;;;;;;21.84;37.40;101193.66;104627;1308;60181;-83
2022/09/23 07:51:33;;;;;;;;;;;;;;;21.86;37.42;101193.83;104175;1309;61313;-84
2022/09/23 07:53:58;;;;;;;;;;;;;;;21.90;37.50;101195.77;104280;1307;61240;-82
2022/09/23 07:56:24;;;;;;;;;;;;;;;21.92;37.48;101199.55;104250;1306;61924;-83
2022/09/23 07:58:59;;;;;;;;;;;;;;;21.94;37.35;101200.10;104272;1308;61328;-82
2022/09/23 08:01:29;;;;;;;;;;;;;;;21.97;37.40;101199.40;104268;1309;74963;-83
2022/09/23 08:03:55;;;;;;;;;;;;;;;21.99;37.51;101200.32;104403;1308;61171;-85
2022/09/23 08:06:24;;;;;;;;;;;;;;;21.94;37.40;101203.52;104205;1309;59295;-83
2022/09/23 08:08:49;;;;;;;;;;;;;;;21.76;37.26;101202.98;104421;1306;73842;-82
2022/09/23 08:11:15;;;;;;;;;;;;;;;21.56;37.13;101205.20;104287;1308;61432;-83
2022/09/23 08:13:43;;;;;;;;;;;;;;;21.44;37.28;101205.25;104276;1308;60334;-81
2022/09/23 08:16:09;;;;;;;;;;;;;;;21.39;37.24;101199.82;104434;1308;61036;-83
2022/09/23 08:18:35;;;;;;;;;;;;;;;21.33;37.20;101202.55;104279;1308;61436;-83
2022/09/23 08:21:01;;;;;;;;;;;;;;;21.14;37.25;101200.73;104373;1309;61112;-83
2022/09/23 08:23:32;;;;;;;;;;;;;;;21.15;37.46;101201.40;104473;1307;61436;-85
2022/09/23 08:25:58;;;;;;;;;;;;;;;21.19;37.36;101198.66;104359;1309;61245;-83
2022/09/23 08:28:24;;;;;;;;;;;;;;;21.21;37.52;101199.92;104260;1308;73116;-84
2022/09/23 08:30:50;;;;;;;;;;;;;;;21.29;37.29;101201.02;104596;1306;74737;-84
2022/09/23 08:33:16;;;;;;;;;;;;;;;21.37;37.50;101203.55;104261;1308;61364;-84
2022/09/23 08:35:43;;;;;;;;;;;;;;;21.44;37.31;101201.86;104287;1309;61274;-82
2022/09/23 08:38:08;;;;;;;;;;;;;;;21.40;37.10;101204.05;104259;1309;59429;-82
2022/09/23 08:40:34;;;;;;;;;;;;;;;21.32;37.16;101206.58;104332;1308;61355;-83
2022/09/23 08:43:00;;;;;;;;;;;;;;;21.35;37.08;101204.23;104238;1308;61348;-84
2022/09/23 08:45:25;;;;;;;;;;;;;;;21.40;37.20;101206.40;104421;1308;59706;-83
2022/09/23 08:48:00;;;;;;;;;;;;;;;21.42;37.15;101208.08;104194;1309;61469;-84
2022/09/23 08:50:30;;;;;;;;;;;;;;;21.42;37.14;101204.83;104477;1308;72863;-84
2022/09/23 08:52:57;;;;;;;;;;;;;;;21.41;37.21;101207.42;104249;1309;76564;-84
2022/09/23 08:55:38;;;;;;;;;;;;;;;21.43;37.03;101205.84;104264;1309;60087;-83
2022/09/23 08:58:17;;;;;;;;;;;;;;;21.40;36.92;101203.48;104254;1309;61261;-83
2022/09/23 09:00:45;;;;;;;;;;;;;;;21.33;36.84;101196.47;104401;1308;72857;-82
2022/09/23 09:03:17;;;;;;;;;;;;;;;21.33;36.92;101192.68;104325;1306;74818;-83
2022/09/23 09:05:43;;;;;;;;;;;;;;;21.26;36.86;101190.64;104315;1309;61252;-86
2022/09/23 09:08:08;;;;;;;;;;;;;;;21.21;36.85;101185.08;104350;1309;61395;-84
2022/09/23 09:10:34;;;;;;;;;;;;;;;21.22;36.84;101185.37;104466;1308;59803;-84
2022/09/23 09:13:06;;;;;;;;;;;;;;;21.20;37.07;101181.54;104344;1308;61341;-82
2022/09/23 09:15:31;;;;;;;;;;;;;;;21.18;36.88;101183.35;104500;1307;60022;-83
2022/09/23 09:17:58;;;;;;;;;;;;;;;21.20;37.03;101177.64;104361;1309;61315;-84
2022/09/23 09:20:31;;;;;;;;;;;;;;;21.21;36.80;101174.50;104338;1308;61143;-83
2022/09/23 09:22:59;;;;;;;;;;;;;;;21.25;36.95;101174.63;104463;1306;74624;-82
2022/09/23 09:25:40;;;;;;;;;;;;;;;21.30;37.06;101174.13;104332;1308;61177;-82
2022/09/23 09:28:17;;;;;;;;;;;;;;;21.38;37.14;101177.20;104366;1307;61439;-82
2022/09/23 09:30:43;;;;;;;;;;;;;;;21.44;37.15;101172.81;104454;1306;72887;-83
2022/09/23 09:33:16;;;;;;;;;;;;;;;21.50;37.08;101169.94;104727;1306;75990;-83
2022/09/23 09:36:20;;;;;;;;;;;;;;;21.55;37.16;101174.98;104308;1306;60540;-83
2022/09/23 09:38:45;;;;;;;;;;;;;;;21.61;37.23;101182.64;103898;1314;61202;-82
2022/09/23 09:41:16;;;;;;;;;;;;;;;21.58;37.22;101177.30;103934;1315;61318;-81
2022/09/23 09:43:47;;;;;;;;;;;;;;;21.45;37.05;101181.52;104057;1308;75769;-82
2022/09/23 09:46:23;;;;;;;;;;;;;;;21.32;36.80;101177.02;104315;1309;61637;-83
2022/09/23 09:48:53;;;;;;;;;;;;;;;21.25;36.95;101174.77;104402;1306;61091;-83
2022/09/23 09:51:20;;;;;;;;;;;;;;;21.22;36.92;101176.81;104454;1308;71866;-83
2022/09/23 09:53:46;;;;;;;;;;;;;;;21.20;36.95;101174.20;104328;1309;76041;-84
2022/09/23 09:56:14;;;;;;;;;;;;;;;21.20;37.12;101176.95;104198;1308;59175;-82
2022/09/23 09:58:42;;;;;;;;;;;;;;;21.22;36.98;101172.10;104465;1306;60441;-82
2022/09/23 10:01:17;;;;;;;;;;;;;;;21.23;37.05;101169.53;103696;1309;863803;-82
2022/09/23 10:03:42;;;;;;;;;;;;;;;21.17;36.82;101168.20;104886;1309;75758;-82
2022/09/23 10:06:19;;;;;;;;;;;;;;;21.14;36.96;101168.70;105028;1309;59570;-83
2022/09/23 10:08:48;;;;;;;;;;;;;;;21.15;36.81;101166.54;105127;1308;60540;-82
2022/09/23 10:11:23;;;;;;;;;;;;;;;21.11;36.83;101164.63;105257;1308;72735;-82
2022/09/23 10:14:08;;;;;;;;;;;;;;;21.09;36.79;101165.08;105235;1308;74759;-83
2022/09/23 10:16:33;;;;;;;;;;;;;;;21.08;36.74;101163.77;105333;1307;60338;-83
2022/09/23 10:19:00;;;;;;;;;;;;;;;21.08;36.85;101162.80;105125;1308;59203;-83
2022/09/23 10:21:32;;;;;;;;;;;;;;;21.12;36.85;101159.58;105166;1308;60062;-83
2022/09/23 10:23:59;;;;;;;;;;;;;;;21.19;36.95;101158.73;105018;1308;74709;-83
2022/09/23 10:26:42;;;;;;;;;;;;;;;21.22;36.76;101159.76;105226;1309;61409;-83
2022/09/23 10:29:26;;;;;;;;;;;;;;;21.23;36.83;101164.01;105228;1308;61234;-82
2022/09/23 10:32:12;;;;;;;;;;;;;;;21.26;36.76;101155.40;105029;1307;73924;-81
2022/09/23 10:34:39;;;;;;;;;;;;;;;21.29;36.73;101144.29;105347;1306;75889;-83
2022/09/23 10:37:13;;;;;;;;;;;;;;;21.32;36.72;101146.92;105163;1309;60157;-82
2022/09/23 10:48:12;;;;;;;;;;;;;;;21.42;36.68;101136.73;104200;1309;61367;-85
2022/09/23 10:50:37;;;;;;;;;;;;;;;21.44;36.48;101133.27;104322;1307;61225;-83
2022/09/23 10:53:15;;;;;;;;;;;;;;;21.43;36.55;101131.34;104353;1308;61297;-84
2022/09/23 10:55:44;;;;;;;;;;;;;;;21.44;36.63;101123.92;104344;1309;76099;-84
2022/09/23 10:58:30;;;;;;;;;;;;;;;21.47;36.47;101129.15;104162;1308;61233;-84
2022/09/23 11:01:08;;;;;;;;;;;;;;;21.44;36.28;101126.61;104257;1309;61806;-81
2022/09/23 11:03:53;;;;;;;;;;;;;;;21.42;36.31;101123.87;104618;1309;73044;-82
2022/09/23 11:06:28;;;;;;;;;;;;;;;21.43;36.04;101114.11;104326;1310;74555;-83
2022/09/23 11:09:01;;;;;;;;;;;;;;;21.43;36.17;101111.13;104465;1308;61381;-83
2022/09/23 11:11:44;;;;;;;;;;;;;;;21.39;35.93;101107.41;105418;1306;61723;-83
2022/09/23 11:14:15;;;;;;;;;;;;;;;21.23;35.56;101105.70;105483;1306;72741;-83
2022/09/23 11:16:47;;;;;;;;;;;;;;;21.02;35.83;101105.45;105401;1308;74732;-83
2022/09/23 11:19:32;;;;;;;;;;;;;;;20.99;35.84;101102.41;104441;1306;61157;-84
2022/09/23 11:22:14;;;;;;;;;;;;;;;21.07;35.92;101095.98;104471;1308;61299;-83
2022/09/23 11:24:40;;;;;;;;;;;;;;;21.15;36.03;101087.77;104305;1309;73716;-82
2022/09/23 11:27:20;;;;;;;;;;;;;;;21.22;35.94;101088.01;104318;1309;61510;-83
2022/09/23 11:30:05;;;;;;;;;;;;;;;21.29;35.94;101081.81;104393;1309;61304;-82
2022/09/23 11:32:49;;;;;;;;;;;;;;;21.35;35.96;101079.23;104493;1308;61495;-84
2022/09/23 11:35:17;;;;;;;;;;;;;;;21.38;35.79;101072.21;104409;1308;73077;-83
2022/09/23 11:37:54;;;;;;;;;;;;;;;21.40;35.77;101069.05;105350;1307;74919;-83
2022/09/23 11:40:27;;;;;;;;;;;;;;;21.42;35.85;101063.52;104812;1306;61348;-83
2022/09/23 11:42:58;;;;;;;;;;;;;;;21.44;35.76;101059.50;105225;1308;61711;-82
2022/09/23 11:45:25;;;;;;;;;;;;;;;21.46;35.82;101058.84;104517;1309;72617;-83
2022/09/23 11:47:56;;;;;;;;;;;;;;;21.49;35.85;101056.48;104343;1309;73991;-82
2022/09/23 11:50:24;;;;;;;;;;;;;;;21.51;35.82;101044.51;104365;1308;61269;-83
2022/09/23 11:52:51;;;;;;;;;;;;;;;21.53;35.77;101037.02;104289;1309;61268;-84
2022/09/23 11:55:19;;;;;;;;;;;;;;;21.52;35.67;101034.57;104232;1308;74216;-84
2022/09/23 11:57:48;;;;;;;;;;;;;;;21.51;35.76;101031.65;104387;1309;74782;-84
2022/09/23 12:00:18;;;;;;;;;;;;;;;21.49;35.77;101029.39;104360;1309;61298;-84
2022/09/23 12:02:49;;;;;;;;;;;;;;;21.48;35.70;101027.69;104266;1308;61238;-84
2022/09/23 12:05:17;;;;;;;;;;;;;;;21.49;35.76;101025.09;104386;1308;73967;-84
2022/09/23 12:07:46;;;;;;;;;;;;;;;21.52;35.91;101025.27;104269;1309;74861;-84
2022/09/23 12:10:11;;;;;;;;;;;;;;;21.56;35.78;101021.10;104259;1309;61262;-83
2022/09/23 12:12:47;;;;;;;;;;;;;;;21.57;35.87;101018.65;104271;1309;61278;-85
2022/09/23 12:15:20;;;;;;;;;;;;;;;21.59;35.94;101017.24;104288;1309;73957;-84
2022/09/23 12:18:14;;;;;;;;;;;;;;;21.62;35.87;101016.59;104383;1308;75079;-83
2022/09/23 12:20:59;;;;;;;;;;;;;;;21.63;35.93;101013.60;103873;1314;61300;-84
2022/09/23 12:23:28;;;;;;;;;;;;;;;21.65;35.87;101021.91;104092;1314;61275;-85
2022/09/23 12:25:55;;;;;;;;;;;;;;;21.65;35.92;101015.61;104080;1315;72725;-81
2022/09/23 12:28:23;;;;;;;;;;;;;;;21.67;35.96;101014.42;104120;1314;75745;-83
2022/09/23 12:30:49;;;;;;;;;;;;;;;21.67;35.86;101009.20;104115;1314;61243;-83
2022/09/23 12:33:27;;;;;;;;;;;;;;;21.67;35.97;101001.50;104131;1315;61311;-85
2022/09/23 12:36:03;;;;;;;;;;;;;;;21.68;35.95;100998.04;103875;1314;72824;-81
2022/09/23 12:38:29;;;;;;;;;;;;;;;21.69;36.03;100991.33;104013;1313;75664;-83
2022/09/23 12:40:55;;;;;;;;;;;;;;;21.70;35.93;100995.00;103974;1315;61286;-87
2022/09/23 12:43:32;;;;;;;;;;;;;;;21.71;36.10;100992.30;103986;1314;61302;-83
2022/09/23 12:46:16;;;;;;;;;;;;;;;21.73;36.22;100992.52;103914;1315;74087;-84
2022/09/23 12:48:56;;;;;;;;;;;;;;;21.74;36.16;100994.23;104038;1315;74773;-80